createdAt,value
2022-11-25T00:00:10.872Z,100704.41
2022-11-25T00:10:12.143Z,100715.63
2022-11-25T00:20:13.388Z,100697.16
2022-11-25T00:30:14.670Z,100688.78
2022-11-25T00:40:15.954Z,100688.06
2022-11-25T00:50:17.207Z,100676.00
2022-11-25T01:00:18.443Z,100686.41
2022-11-25T01:10:19.691Z,100696.16
2022-11-25T01:20:20.948Z,100697.03
2022-11-25T01:30:22.206Z,100705.00
2022-11-25T01:40:23.532Z,100716.25
2022-11-25T01:50:24.847Z,100738.97
2022-11-25T02:00:27.312Z,100746.88
2022-11-25T02:10:28.990Z,100759.81
2022-11-25T02:20:30.289Z,100768.56
2022-11-25T02:30:31.580Z,100776.53
2022-11-25T02:40:32.842Z,100790.44
2022-11-25T02:50:34.150Z,100787.13
2022-11-25T03:00:35.380Z,100740.88
2022-11-25T03:10:36.671Z,100716.41
2022-11-25T03:20:37.943Z,100755.56
2022-11-25T03:30:39.332Z,100745.00
2022-11-25T03:40:40.602Z,100783.25
2022-11-25T03:50:41.837Z,100782.38
2022-11-25T04:00:43.098Z,100801.59
2022-11-25T04:10:44.355Z,100808.50
2022-11-25T04:20:45.609Z,100820.66
2022-11-25T04:30:46.942Z,100845.91
2022-11-25T04:40:48.257Z,100866.97
2022-11-25T04:50:50.120Z,100868.59
2022-11-25T05:00:53.673Z,100873.06
2022-11-25T05:10:54.980Z,100883.63
2022-11-25T05:20:56.256Z,100883.50
2022-11-25T05:30:57.570Z,100890.34
2022-11-25T05:40:58.942Z,100890.84
2022-11-25T05:51:00.264Z,100909.16
2022-11-25T06:01:01.521Z,100914.25
2022-11-25T06:11:02.758Z,100919.09
2022-11-25T06:21:04.006Z,100932.94
2022-11-25T06:31:05.287Z,100948.94
2022-11-25T06:41:06.584Z,100961.59
2022-11-25T06:51:07.915Z,100974.63
2022-11-25T07:01:09.284Z,100978.59
2022-11-25T07:11:10.986Z,100986.25
2022-11-25T07:21:12.336Z,101001.06
2022-11-25T07:31:32.605Z,101024.75
2022-11-25T07:41:34.832Z,101048.00
2022-11-25T07:51:36.200Z,101077.41
2022-11-25T08:01:37.544Z,101077.41
2022-11-25T08:11:38.903Z,101101.63
2022-11-25T08:21:40.262Z,101115.78
2022-11-25T08:31:41.665Z,101123.91
2022-11-25T08:41:43.206Z,101137.06
2022-11-25T08:51:44.566Z,101136.78
2022-11-25T09:01:45.989Z,101143.94
2022-11-25T09:11:47.558Z,101164.84
2022-11-25T09:21:49.165Z,101181.34
2022-11-25T09:31:54.721Z,101187.56
2022-11-25T09:41:56.297Z,101203.75
2022-11-25T09:51:57.577Z,101224.53
2022-11-25T10:01:59.114Z,101226.97
2022-11-25T10:12:00.431Z,101236.41
2022-11-25T10:22:01.835Z,101261.59
2022-11-25T10:32:03.258Z,101274.63
2022-11-25T10:42:04.592Z,101284.25
2022-11-25T10:52:05.920Z,101291.97
2022-11-25T11:02:07.252Z,101306.66
2022-11-25T11:12:08.757Z,101316.16
2022-11-25T11:22:10.016Z,101324.56
2022-11-25T11:32:11.284Z,101338.38
2022-11-25T11:42:12.615Z,101359.16
2022-11-25T11:52:13.862Z,101357.59
2022-11-25T12:02:15.372Z,101371.78
2022-11-25T12:12:16.845Z,101385.22
2022-11-25T12:22:18.187Z,101393.41
2022-11-25T12:32:19.445Z,101398.69
2022-11-25T12:42:20.728Z,101417.03
2022-11-25T12:52:25.406Z,101433.88
2022-11-25T13:02:34.314Z,101445.06
2022-11-25T13:12:42.531Z,101458.09
2022-11-25T13:22:51.956Z,101477.41
2022-11-25T13:32:59.249Z,101485.91
2022-11-25T13:43:07.588Z,101487.69
2022-11-25T13:53:16.456Z,101510.59
2022-11-25T14:03:24.548Z,101521.72
2022-11-25T14:13:32.356Z,101530.53
2022-11-25T14:23:58.682Z,101542.06
2022-11-25T14:34:00.068Z,101563.06
2022-11-25T14:44:03.349Z,101582.25
2022-11-25T14:54:04.670Z,101599.81
2022-11-25T15:04:13.364Z,101618.50
2022-11-25T15:14:21.304Z,101622.88
2022-11-25T15:24:30.431Z,101639.56
2022-11-25T15:34:31.763Z,101659.81
2022-11-25T15:44:33.099Z,101678.34
2022-11-25T15:54:34.418Z,101696.56
2022-11-25T16:04:35.734Z,101717.53
2022-11-25T16:14:37.092Z,101739.41
2022-11-25T16:24:38.317Z,101761.34
2022-11-25T16:34:39.799Z,101785.75
2022-11-25T16:44:41.377Z,101789.28
2022-11-25T16:54:42.653Z,101818.19
2022-11-25T17:04:43.929Z,101841.72
2022-11-25T17:14:45.496Z,101848.84
2022-11-25T17:24:47.001Z,101860.38
2022-11-25T17:34:49.619Z,101877.47
2022-11-25T17:44:54.068Z,101905.25
2022-11-25T17:54:55.746Z,101933.22
2022-11-25T18:04:57.016Z,101950.66
2022-11-25T18:14:58.436Z,101952.41
2022-11-25T18:25:01.321Z,101965.53
2022-11-25T18:35:04.408Z,101975.16
2022-11-25T18:45:05.743Z,101987.34
2022-11-25T18:55:07.378Z,102005.84
2022-11-25T19:05:09.507Z,102021.41
2022-11-25T19:15:10.755Z,102039.88
2022-11-25T19:25:12.203Z,102047.81
2022-11-25T19:35:13.583Z,102063.44
2022-11-25T19:45:15.011Z,102071.41
2022-11-25T19:55:16.339Z,102095.03
2022-11-25T20:05:17.708Z,102107.25
2022-11-25T20:15:19.113Z,102117.78
2022-11-25T20:25:20.530Z,102125.63
2022-11-25T20:35:24.007Z,102144.84
2022-11-25T20:45:25.793Z,102157.97
2022-11-25T20:55:27.232Z,102174.13
2022-11-25T21:05:28.611Z,102188.03
2022-11-25T21:15:30.005Z,102195.03
2022-11-25T21:25:31.406Z,102211.53
2022-11-25T21:35:32.783Z,102221.25
2022-11-25T21:45:34.137Z,102232.66
2022-11-25T21:55:35.523Z,102257.94
2022-11-25T22:05:36.858Z,102258.88
2022-11-25T22:15:38.179Z,102271.00
2022-11-25T22:25:42.841Z,102278.03
2022-11-25T22:35:44.087Z,102286.78
2022-11-25T22:45:45.492Z,102306.06
2022-11-25T22:55:46.745Z,102319.13
2022-11-25T23:05:48.096Z,102325.31
2022-11-25T23:15:49.483Z,102333.94
2022-11-25T23:25:50.804Z,102341.84
2022-11-25T23:35:52.105Z,102358.44
2022-11-25T23:45:53.411Z,102368.88
2022-11-25T23:55:54.748Z,102382.84
